createdAt,value
2022-09-23T00:02:23.444Z,99213.94
2022-09-23T00:07:25.576Z,99237.09
2022-09-23T00:12:27.879Z,99220.47
2022-09-23T00:17:31.167Z,99235.66
2022-09-23T00:22:33.872Z,99228.53
2022-09-23T00:27:37.081Z,99231.97
2022-09-23T00:32:40.311Z,99247.16
2022-09-23T00:37:42.543Z,99238.34
2022-09-23T00:42:52.241Z,99239.00
2022-09-23T00:48:02.002Z,99249.25
2022-09-23T00:53:10.850Z,99230.97
2022-09-23T00:58:17.923Z,99246.38
2022-09-23T01:03:22.884Z,99250.03
2022-09-23T01:08:26.921Z,99247.59
2022-09-23T01:13:33.901Z,99245.75
2022-09-23T01:19:09.612Z,99258.97
2022-09-23T01:24:37.906Z,99250.56
2022-09-23T01:29:52.070Z,99247.84
2022-09-23T01:35:06.691Z,99241.06
2022-09-23T01:40:21.122Z,99247.84
2022-09-23T01:45:34.484Z,99247.63
2022-09-23T01:50:57.968Z,99256.03
2022-09-23T01:56:21.999Z,99249.03
2022-09-23T02:01:33.136Z,99252.38
2022-09-23T02:06:46.611Z,99251.19
2022-09-23T02:11:52.561Z,99242.69
2022-09-23T02:16:58.263Z,99258.34
2022-09-23T02:22:12.467Z,99241.47
2022-09-23T02:27:30.596Z,99235.97
2022-09-23T02:32:59.341Z,99254.25
2022-09-23T02:38:16.661Z,99248.09
2022-09-23T02:43:52.418Z,99247.69
2022-09-23T02:49:00.984Z,99240.66
2022-09-23T02:54:06.565Z,99248.00
2022-09-23T02:59:10.058Z,99246.97
2022-09-23T03:04:20.980Z,99246.41
2022-09-23T03:09:30.818Z,99245.56
2022-09-23T03:14:44.578Z,99256.06
2022-09-23T03:19:55.453Z,99254.03
2022-09-23T03:25:04.129Z,99259.16
2022-09-23T03:30:07.845Z,99257.69
2022-09-23T03:35:10.416Z,99265.69
2022-09-23T03:40:32.589Z,99258.53
2022-09-23T03:45:35.251Z,99260.88
2022-09-23T03:50:37.409Z,99246.88
2022-09-23T03:55:39.567Z,99240.72
2022-09-23T04:00:42.433Z,99240.13
2022-09-23T04:05:45.364Z,99236.66
2022-09-23T04:10:49.044Z,99228.88
2022-09-23T04:15:52.768Z,99231.56
2022-09-23T04:20:58.841Z,99227.06
2022-09-23T04:26:00.867Z,99227.28
2022-09-23T04:31:06.418Z,99224.53
2022-09-23T04:36:08.628Z,99203.44
2022-09-23T04:41:10.956Z,99217.81
2022-09-23T04:46:15.342Z,99216.75
2022-09-23T04:51:20.379Z,99202.78
2022-09-23T04:56:26.230Z,99188.34
2022-09-23T05:01:31.078Z,99182.78
2022-09-23T05:06:35.048Z,99184.63
2022-09-23T05:11:37.128Z,99167.31
2022-09-23T05:16:39.347Z,99197.84
2022-09-23T05:21:41.538Z,99199.00
2022-09-23T05:26:43.627Z,99205.59
2022-09-23T05:31:45.746Z,99200.22
2022-09-23T05:36:47.816Z,99191.34
2022-09-23T05:41:49.810Z,99181.22
2022-09-23T05:46:52.152Z,99180.44
2022-09-23T05:51:54.234Z,99188.22
2022-09-23T05:56:57.679Z,99191.66
2022-09-23T06:02:01.967Z,99182.59
2022-09-23T06:07:04.110Z,99212.41
2022-09-23T06:12:06.570Z,99200.81
2022-09-23T06:17:08.615Z,99203.00
2022-09-23T06:22:11.935Z,99201.03
2022-09-23T06:27:14.008Z,99200.25
2022-09-23T06:32:16.732Z,99205.78
2022-09-23T06:37:20.649Z,99206.16
2022-09-23T06:42:23.108Z,99228.56
2022-09-23T06:47:25.195Z,99249.75
2022-09-23T06:52:28.678Z,99238.00
2022-09-23T06:57:31.721Z,99246.59
2022-09-23T07:02:33.958Z,99220.28
2022-09-23T07:07:37.517Z,99218.50
2022-09-23T07:12:39.867Z,99215.28
2022-09-23T07:17:43.085Z,99215.06
2022-09-23T07:22:52.610Z,99205.00
2022-09-23T07:27:56.352Z,99212.31
2022-09-23T07:32:58.467Z,99207.09
2022-09-23T07:38:00.729Z,99218.38
2022-09-23T07:43:04.717Z,99214.50
2022-09-23T07:48:06.838Z,99211.09
2022-09-23T07:53:09.176Z,99208.69
2022-09-23T07:58:11.219Z,99220.06
2022-09-23T08:03:14.899Z,99211.81
2022-09-23T08:08:17.404Z,99210.63
2022-09-23T08:13:19.485Z,99200.56
2022-09-23T08:18:21.629Z,99191.63
2022-09-23T08:23:23.822Z,99193.53
2022-09-23T08:28:26.217Z,99185.19
2022-09-23T08:33:28.524Z,99192.13
2022-09-23T08:38:30.615Z,99201.06
2022-09-23T08:43:34.780Z,99187.97
2022-09-23T08:48:43.275Z,99191.56
2022-09-23T08:53:46.929Z,99179.19
2022-09-23T08:59:04.376Z,99175.16
2022-09-23T09:04:27.783Z,99186.63
2022-09-23T09:09:36.355Z,99193.81
2022-09-23T09:14:57.477Z,99201.56
2022-09-23T09:20:25.783Z,99191.63
2022-09-23T09:25:43.170Z,99167.78
2022-09-23T09:30:49.213Z,99167.47
2022-09-23T09:36:09.008Z,99166.16
2022-09-23T09:41:17.919Z,99160.94
2022-09-23T09:46:26.689Z,99140.75
2022-09-23T09:51:29.606Z,99143.56
2022-09-23T09:56:36.150Z,99155.88
2022-09-23T10:01:38.411Z,99159.19
2022-09-23T10:06:41.918Z,99141.78
2022-09-23T10:12:05.914Z,99155.13
2022-09-23T10:17:15.578Z,99148.94
2022-09-23T10:22:24.222Z,99147.56
2022-09-23T10:27:33.352Z,99147.13
2022-09-23T10:32:38.828Z,99154.66
2022-09-23T10:37:49.500Z,99153.44
2022-09-23T10:43:15.855Z,99141.19
2022-09-23T10:48:24.866Z,99143.56
2022-09-23T10:53:52.174Z,99134.38
2022-09-23T10:59:30.320Z,99126.53
2022-09-23T11:04:52.929Z,99113.75
2022-09-23T11:10:29.172Z,99108.56
2022-09-23T11:15:56.186Z,99098.56
2022-09-23T11:21:30.484Z,99096.66
2022-09-23T11:26:48.140Z,99091.34
2022-09-23T11:32:11.785Z,99089.31
2022-09-23T11:37:43.115Z,99076.38
2022-09-23T11:42:59.954Z,99082.06
2022-09-23T11:48:05.514Z,99077.88
2022-09-23T11:53:32.496Z,99069.19
2022-09-23T11:58:53.533Z,99066.50
2022-09-23T12:04:19.044Z,99086.16
2022-09-23T12:09:54.107Z,99081.34
2022-09-23T12:15:17.587Z,99063.38
2022-09-23T12:20:45.540Z,99075.25
2022-09-23T12:25:57.167Z,99077.03
2022-09-23T12:31:02.186Z,99082.22
2022-09-23T12:36:07.971Z,99076.50
2022-09-23T12:41:39.071Z,99080.00
2022-09-23T12:46:46.044Z,99071.34
2022-09-23T12:52:17.451Z,99051.63
2022-09-23T12:57:34.876Z,99040.09
2022-09-23T13:03:10.379Z,99042.31
2022-09-23T13:08:17.260Z,99045.56
2022-09-23T13:13:31.761Z,99033.19
2022-09-23T13:18:54.187Z,99035.16
2022-09-23T13:24:15.087Z,99027.59
2022-09-23T13:29:23.625Z,99031.31
2022-09-23T13:34:32.151Z,99026.66
2022-09-23T13:39:34.772Z,99037.16
2022-09-23T13:44:40.748Z,99039.50
2022-09-23T13:49:43.601Z,99032.13
2022-09-23T13:54:50.314Z,99026.78
2022-09-23T13:59:53.588Z,99025.00
2022-09-23T14:04:59.051Z,99014.16
2022-09-23T14:10:01.518Z,99010.06
2022-09-23T14:15:03.954Z,98986.31
2022-09-23T14:20:17.417Z,99019.25
2022-09-23T14:25:19.950Z,99004.56
2022-09-23T14:30:22.100Z,98997.59
2022-09-23T14:35:38.087Z,98991.00
2022-09-23T14:40:49.118Z,99005.50
2022-09-23T14:45:56.189Z,99005.28
2022-09-23T14:51:01.094Z,98998.28
2022-09-23T14:56:06.133Z,99001.81
2022-09-23T15:01:33.107Z,98996.25
2022-09-23T15:06:38.099Z,98992.84
2022-09-23T15:11:40.883Z,98977.00
2022-09-23T15:16:43.369Z,98980.50
2022-09-23T15:21:47.102Z,98973.41
2022-09-23T15:26:51.387Z,98971.19
2022-09-23T15:31:53.860Z,98980.44
2022-09-23T15:36:56.832Z,98980.22
2022-09-23T15:42:01.592Z,98970.84
2022-09-23T15:47:04.707Z,98987.09
2022-09-23T15:52:09.816Z,98981.22
2022-09-23T15:57:12.175Z,98976.53
2022-09-23T16:02:21.512Z,98974.25
2022-09-23T16:07:24.340Z,98976.81
2022-09-23T16:12:26.667Z,98972.31
2022-09-23T16:17:29.432Z,98967.59
2022-09-23T16:22:31.812Z,98972.31
2022-09-23T16:27:34.377Z,98964.31
2022-09-23T16:32:36.902Z,98960.84
2022-09-23T16:37:39.097Z,98953.88
2022-09-23T16:42:41.467Z,98952.03
2022-09-23T16:47:49.080Z,98945.25
2022-09-23T16:52:56.386Z,98949.00
2022-09-23T16:57:58.747Z,98937.75
2022-09-23T17:03:19.817Z,98940.63
2022-09-23T17:08:22.137Z,98926.13
2022-09-23T17:13:25.821Z,98928.59
2022-09-23T17:18:29.750Z,98920.03
2022-09-23T17:23:33.542Z,98917.19
2022-09-23T17:28:36.020Z,98887.69
2022-09-23T17:33:38.387Z,98909.00
2022-09-23T17:38:43.451Z,98893.22
2022-09-23T17:43:46.806Z,98894.91
2022-09-23T17:48:49.021Z,98895.53
2022-09-23T17:53:51.548Z,98886.94
2022-09-23T17:58:54.308Z,98882.25
2022-09-23T18:04:01.547Z,98885.09
2022-09-23T18:09:06.688Z,98879.16
2022-09-23T18:14:22.773Z,98888.75
2022-09-23T18:19:25.133Z,98888.56
2022-09-23T18:24:32.879Z,98861.34
2022-09-23T18:29:35.877Z,98873.41
2022-09-23T18:34:38.392Z,98863.38
2022-09-23T18:39:41.175Z,98843.75
2022-09-23T18:44:43.292Z,98856.41
2022-09-23T18:50:03.650Z,98849.13
2022-09-23T18:55:06.559Z,98841.66
2022-09-23T19:00:10.071Z,98838.59
2022-09-23T19:05:12.167Z,98822.25
2022-09-23T19:10:14.595Z,98823.69
2022-09-23T19:15:16.960Z,98819.59
2022-09-23T19:20:19.098Z,98817.13
2022-09-23T19:25:21.071Z,98816.22
2022-09-23T19:30:23.344Z,98812.88
2022-09-23T19:35:25.806Z,98803.25
2022-09-23T19:40:31.509Z,98796.72
2022-09-23T19:45:34.400Z,98792.22
2022-09-23T19:50:41.586Z,98799.38
2022-09-23T19:55:44.372Z,98780.94
2022-09-23T20:00:46.552Z,98779.31
2022-09-23T20:05:56.685Z,98775.72
2022-09-23T20:10:58.717Z,98761.09
2022-09-23T20:16:02.277Z,98764.97
2022-09-23T20:21:05.710Z,98748.63
2022-09-23T20:26:27.218Z,98741.88
2022-09-23T20:31:29.534Z,98731.22
2022-09-23T20:36:33.009Z,98724.88
2022-09-23T20:41:37.753Z,98721.41
2022-09-23T20:46:44.110Z,98708.72
2022-09-23T20:51:50.358Z,98703.19
2022-09-23T20:56:53.546Z,98706.66
2022-09-23T21:01:58.242Z,98694.78
2022-09-23T21:07:01.491Z,98692.94
2022-09-23T21:12:03.707Z,98660.44
2022-09-23T21:17:05.783Z,98677.78
2022-09-23T21:22:07.677Z,98667.31
2022-09-23T21:27:09.692Z,98663.22
2022-09-23T21:32:11.701Z,98656.06
2022-09-23T21:37:13.785Z,98647.09
2022-09-23T21:42:15.727Z,98645.91
2022-09-23T21:47:18.218Z,98625.03
2022-09-23T21:52:20.286Z,98618.75
2022-09-23T21:57:25.922Z,98614.28
2022-09-23T22:02:27.988Z,98601.16
2022-09-23T22:07:29.944Z,98591.59
2022-09-23T22:12:33.634Z,98586.91
2022-09-23T22:17:35.789Z,98574.25
2022-09-23T22:22:37.764Z,98566.91
2022-09-23T22:27:59.823Z,98563.81
2022-09-23T22:33:04.549Z,98555.44
2022-09-23T22:38:06.694Z,98545.25
2022-09-23T22:43:08.970Z,98523.19
2022-09-23T22:48:11.074Z,98519.69
2022-09-23T22:53:13.989Z,98516.03
2022-09-23T22:58:31.611Z,98521.53
2022-09-23T23:03:36.368Z,98503.56
2022-09-23T23:08:38.916Z,98492.72
2022-09-23T23:13:41.934Z,98483.72
2022-09-23T23:18:45.142Z,98480.06
2022-09-23T23:23:50.060Z,98471.06
2022-09-23T23:28:54.011Z,98462.47
2022-09-23T23:33:56.184Z,98453.69
2022-09-23T23:38:58.634Z,98434.69
2022-09-23T23:44:01.552Z,98431.41
2022-09-23T23:49:04.698Z,98422.63
2022-09-23T23:54:07.285Z,98399.97
2022-09-23T23:59:09.370Z,98406.31
